Time;durP1;ratioP1;P1;durP2;ratioP2;P2;SDS_P1;SDS_P2;PMS_P1;PMS_P2;Temp;Humidity;BMP_temperature;BMP_pressure;BME280_temperature;BME280_humidity;BME280_pressure;Samples;Min_cycle;Max_cycle;Signal;HPM_P1;HPM_P2
2021/10/27 00:01:36;;;;;;;;;;;;;;;20.99;64.59;101676.56;7287977;19;151860;-49
2021/10/27 00:04:03;;;;;;;;;;;;;;;20.99;64.24;101688.66;7287384;19;153307;-49
2021/10/27 00:06:31;;;;;;;;;;;;;;;20.99;64.42;101687.81;7287094;19;154057;-49
2021/10/27 00:08:57;;;;;;;;;;;;;;;20.96;64.49;101680.84;7287208;19;151818;-49
2021/10/27 00:11:24;;;;;;;;;;;;;;;20.96;64.43;101685.59;7288220;19;152719;-50
2021/10/27 00:13:51;;;;;;;;;;;;;;;20.95;64.42;101690.38;7283536;19;155462;-49
2021/10/27 00:16:18;;;;;;;;;;;;;;;20.91;65.03;101697.72;7294627;19;151868;-49
2021/10/27 00:18:45;;;;;;;;;;;;;;;20.94;64.89;101693.50;7285061;19;153977;-50
2021/10/27 00:21:11;;;;;;;;;;;;;;;20.92;64.93;101695.75;7285552;19;151880;-49
2021/10/27 00:23:39;;;;;;;;;;;;;;;20.89;64.75;101691.56;7285106;19;152946;-49
2021/10/27 00:26:05;;;;;;;;;;;;;;;20.89;65.15;101694.38;7286455;19;153313;-49
2021/10/27 00:28:32;;;;;;;;;;;;;;;20.86;65.09;101687.38;7285903;19;151991;-49
2021/10/27 00:30:59;;;;;;;;;;;;;;;20.86;65.21;101698.59;7286672;19;153340;-49
2021/10/27 00:33:26;;;;;;;;;;;;;;;20.84;64.94;101688.81;7281917;19;153926;-49
2021/10/27 00:35:53;;;;;;;;;;;;;;;20.85;64.85;101696.91;7287278;19;151980;-49
2021/10/27 00:38:22;;;;;;;;;;;;;;;20.83;65.26;101692.75;7291841;19;152808;-49
2021/10/27 00:40:57;;;;;;;;;;;;;;;20.79;65.51;101695.28;7287189;19;152003;-49
2021/10/27 00:43:27;;;;;;;;;;;;;;;20.77;65.37;101699.50;7287412;19;152108;-49
2021/10/27 00:45:54;;;;;;;;;;;;;;;20.72;65.83;101697.56;7283010;19;153927;-49
2021/10/27 00:48:21;;;;;;;;;;;;;;;20.74;65.89;101695.31;7285088;19;151951;-49
2021/10/27 00:50:48;;;;;;;;;;;;;;;20.73;65.92;101698.41;7286111;19;153725;-50
2021/10/27 00:53:14;;;;;;;;;;;;;;;20.71;66.21;101700.69;7282205;19;153674;-49
2021/10/27 00:55:41;;;;;;;;;;;;;;;20.68;66.29;101702.09;7285108;19;152369;-50
2021/10/27 00:58:08;;;;;;;;;;;;;;;20.66;66.08;101697.91;7286862;19;153494;-49
2021/10/27 01:00:35;;;;;;;;;;;;;;;20.64;66.35;101701.00;7291569;19;153302;-50
2021/10/27 01:03:02;;;;;;;;;;;;;;;20.64;66.56;101715.03;7287665;19;153114;-49
2021/10/27 01:05:30;;;;;;;;;;;;;;;20.61;66.57;101704.41;7285168;19;153983;-49
2021/10/27 01:07:56;;;;;;;;;;;;;;;20.60;66.53;101710.31;7286320;19;151898;-49
2021/10/27 01:10:24;;;;;;;;;;;;;;;20.59;66.50;101717.03;7284235;19;152589;-49
2021/10/27 01:12:50;;;;;;;;;;;;;;;20.57;66.68;101717.34;7283300;19;154082;-50
2021/10/27 01:15:18;;;;;;;;;;;;;;;20.56;66.65;101715.66;7287108;19;152305;-49
2021/10/27 01:17:45;;;;;;;;;;;;;;;20.56;66.97;101714.81;7286253;19;153476;-49
2021/10/27 01:20:13;;;;;;;;;;;;;;;20.58;67.07;101719.00;7291705;19;155123;-50
2021/10/27 01:22:40;;;;;;;;;;;;;;;20.56;67.20;101712.88;7283979;19;153173;-49
2021/10/27 01:25:08;;;;;;;;;;;;;;;20.55;67.36;101707.53;7285172;19;153430;-49
2021/10/27 01:27:43;;;;;;;;;;;;;;;20.55;67.05;101704.72;7285265;19;151931;-49
2021/10/27 01:30:12;;;;;;;;;;;;;;;20.55;67.34;101704.72;7286352;19;153604;-49
2021/10/27 01:32:40;;;;;;;;;;;;;;;20.56;67.34;101686.75;7283432;19;153424;-49
2021/10/27 01:35:08;;;;;;;;;;;;;;;20.56;67.27;101687.59;7285259;19;151948;-49
2021/10/27 01:37:35;;;;;;;;;;;;;;;20.57;67.20;101677.19;7285835;19;153649;-49
2021/10/27 01:40:02;;;;;;;;;;;;;;;20.57;67.31;101674.41;7283098;19;153297;-49
2021/10/27 01:42:29;;;;;;;;;;;;;;;20.58;67.16;101681.69;7291153;19;152143;-49
2021/10/27 01:44:56;;;;;;;;;;;;;;;20.54;67.11;101677.75;7282241;19;152634;-49
2021/10/27 01:47:23;;;;;;;;;;;;;;;20.52;67.16;101682.84;7285549;19;152269;-49
2021/10/27 01:49:49;;;;;;;;;;;;;;;20.49;67.35;101684.25;7282462;19;152535;-49
2021/10/27 01:52:16;;;;;;;;;;;;;;;20.50;67.46;101679.47;7282531;19;153939;-49
2021/10/27 01:54:43;;;;;;;;;;;;;;;20.48;67.39;101671.38;7285587;19;151925;-51
2021/10/27 01:57:11;;;;;;;;;;;;;;;20.47;67.79;101664.06;7284041;19;151999;-49
2021/10/27 01:59:37;;;;;;;;;;;;;;;20.46;67.88;101668.00;7283104;19;153078;-49
2021/10/27 02:02:04;;;;;;;;;;;;;;;20.44;67.66;101659.06;7285424;19;152446;-49
2021/10/27 02:04:31;;;;;;;;;;;;;;;20.45;68.24;101657.88;7291484;19;153468;-49
2021/10/27 02:07:00;;;;;;;;;;;;;;;20.46;67.83;101650.31;7285016;19;151644;-49
2021/10/27 02:09:27;;;;;;;;;;;;;;;20.46;67.81;101642.72;7283228;19;152531;-50
2021/10/27 02:11:55;;;;;;;;;;;;;;;20.44;67.92;101638.56;7283839;19;153280;-49
2021/10/27 02:14:22;;;;;;;;;;;;;;;20.41;68.30;101639.97;7284040;19;152024;-50
2021/10/27 02:16:48;;;;;;;;;;;;;;;20.41;68.01;101646.41;7284360;19;153275;-49
2021/10/27 02:19:15;;;;;;;;;;;;;;;20.41;68.07;101657.63;7282839;19;154277;-49
2021/10/27 02:21:42;;;;;;;;;;;;;;;20.37;68.20;101659.34;7282754;19;151900;-49
2021/10/27 02:24:09;;;;;;;;;;;;;;;20.40;68.12;101655.97;7285430;19;154351;-49
2021/10/27 02:26:36;;;;;;;;;;;;;;;20.41;67.87;101662.41;7290728;19;153975;-49
2021/10/27 02:29:02;;;;;;;;;;;;;;;20.37;68.02;101656.56;7283671;19;153518;-49
2021/10/27 02:31:29;;;;;;;;;;;;;;;20.37;68.13;101661.31;7280921;19;153174;-49
2021/10/27 02:33:56;;;;;;;;;;;;;;;20.39;68.22;101659.06;7282183;19;151856;-49
2021/10/27 02:36:23;;;;;;;;;;;;;;;20.39;68.51;101659.91;7283037;19;153372;-49
2021/10/27 02:38:49;;;;;;;;;;;;;;;20.38;68.09;101654.59;7282678;19;152344;-49
2021/10/27 02:41:16;;;;;;;;;;;;;;;20.38;68.43;101647.00;7283235;19;152551;-49
2021/10/27 02:43:43;;;;;;;;;;;;;;;20.39;68.30;101645.88;7284782;19;153096;-50
2021/10/27 02:46:10;;;;;;;;;;;;;;;20.37;68.37;101662.16;7280773;19;153849;-50
2021/10/27 02:48:37;;;;;;;;;;;;;;;20.35;68.42;101657.97;7288683;19;152284;-49
2021/10/27 02:51:05;;;;;;;;;;;;;;;20.35;68.42;101650.38;7283053;19;153654;-49
2021/10/27 02:53:32;;;;;;;;;;;;;;;20.35;68.42;101643.94;7281105;19;152380;-50
2021/10/27 02:55:58;;;;;;;;;;;;;;;20.35;67.93;101641.13;7284023;19;154969;-50
2021/10/27 02:58:25;;;;;;;;;;;;;;;20.35;68.24;101646.75;7282127;19;153250;-50
2021/10/27 03:00:52;;;;;;;;;;;;;;;20.34;68.09;101642.25;7282866;19;152040;-49
2021/10/27 03:03:19;;;;;;;;;;;;;;;20.33;68.06;101649.00;7288361;19;152088;-50
2021/10/27 03:05:46;;;;;;;;;;;;;;;20.33;68.42;101654.63;7289468;19;153420;-49
2021/10/27 03:08:13;;;;;;;;;;;;;;;20.32;68.41;101650.13;7290016;19;151860;-49
2021/10/27 03:10:40;;;;;;;;;;;;;;;20.32;67.99;101648.16;7295391;19;153967;-50
2021/10/27 03:13:06;;;;;;;;;;;;;;;20.31;68.16;101649.28;7286725;19;152362;-50
2021/10/27 03:15:33;;;;;;;;;;;;;;;20.31;68.11;101646.47;7288523;19;153510;-50
2021/10/27 03:18:00;;;;;;;;;;;;;;;20.34;68.17;101647.88;7287118;19;154108;-50
2021/10/27 03:20:27;;;;;;;;;;;;;;;20.30;68.42;101643.97;7289623;19;151870;-50
2021/10/27 03:22:53;;;;;;;;;;;;;;;20.28;68.59;101635.81;7289832;19;154131;-50
2021/10/27 03:25:20;;;;;;;;;;;;;;;20.27;68.82;101631.31;7287877;19;153965;-50
2021/10/27 03:27:47;;;;;;;;;;;;;;;20.26;68.73;101635.25;7288253;19;151889;-50
2021/10/27 03:30:14;;;;;;;;;;;;;;;20.27;68.63;101633.28;7296136;19;152754;-50
2021/10/27 03:32:40;;;;;;;;;;;;;;;20.28;68.89;101647.03;7288153;19;152300;-49
2021/10/27 03:35:07;;;;;;;;;;;;;;;20.27;68.53;101636.09;7286805;19;152600;-49
2021/10/27 03:37:35;;;;;;;;;;;;;;;20.25;68.68;101635.56;7288129;19;153724;-50
2021/10/27 03:40:05;;;;;;;;;;;;;;;20.23;69.19;101627.41;7289430;19;151651;-50
2021/10/27 03:42:32;;;;;;;;;;;;;;;20.22;68.78;101624.88;7289187;19;153682;-50
2021/10/27 03:44:58;;;;;;;;;;;;;;;20.24;68.71;101623.50;7288122;19;153787;-50
2021/10/27 03:47:25;;;;;;;;;;;;;;;20.23;68.75;101630.22;7288531;19;151743;-51
2021/10/27 03:49:52;;;;;;;;;;;;;;;20.24;68.64;101628.25;7288692;19;152375;-50
2021/10/27 03:52:19;;;;;;;;;;;;;;;20.24;68.69;101628.25;7295061;19;152671;-49
2021/10/27 03:54:45;;;;;;;;;;;;;;;20.22;68.64;101627.69;7281991;19;153176;-50
2021/10/27 03:57:12;;;;;;;;;;;;;;;20.20;68.82;101630.81;7288023;19;154666;-49
2021/10/27 03:59:39;;;;;;;;;;;;;;;20.21;68.75;101634.47;7286516;19;151767;-50
2021/10/27 04:02:05;;;;;;;;;;;;;;;20.19;69.21;101636.69;7288017;19;153490;-51
2021/10/27 04:04:32;;;;;;;;;;;;;;;20.20;68.85;101629.97;7287836;19;153659;-50
2021/10/27 04:07:00;;;;;;;;;;;;;;;20.19;68.83;101625.47;7287389;19;152196;-50
2021/10/27 04:09:27;;;;;;;;;;;;;;;20.21;68.60;101626.03;7288267;19;151819;-50
2021/10/27 04:11:54;;;;;;;;;;;;;;;20.21;68.71;101626.88;7286836;19;153663;-50
2021/10/27 04:14:21;;;;;;;;;;;;;;;20.22;68.34;101630.50;7291269;19;151725;-50
2021/10/27 04:16:47;;;;;;;;;;;;;;;20.20;68.67;101630.81;7286877;19;154067;-49
2021/10/27 04:19:14;;;;;;;;;;;;;;;20.16;68.86;101640.94;7288306;19;151455;-50
2021/10/27 04:21:41;;;;;;;;;;;;;;;20.17;68.91;101641.78;7287595;19;152688;-50
2021/10/27 04:24:07;;;;;;;;;;;;;;;20.19;69.14;101636.69;7286778;19;153239;-50
2021/10/27 04:26:34;;;;;;;;;;;;;;;20.16;69.18;101640.94;7287847;19;151702;-50
2021/10/27 04:29:01;;;;;;;;;;;;;;;20.15;69.41;101636.44;7287584;19;152423;-50
2021/10/27 04:31:28;;;;;;;;;;;;;;;20.12;69.52;101631.44;7286163;19;153733;-49
2021/10/27 04:33:55;;;;;;;;;;;;;;;20.14;69.61;101625.50;7286362;19;151737;-50
2021/10/27 04:36:21;;;;;;;;;;;;;;;20.11;69.68;101635.34;7291503;19;153754;-50
2021/10/27 04:38:48;;;;;;;;;;;;;;;20.12;69.48;101644.63;7285767;19;151924;-50
2021/10/27 04:41:15;;;;;;;;;;;;;;;20.12;69.57;101647.41;7287095;19;152659;-49
2021/10/27 04:43:42;;;;;;;;;;;;;;;20.10;69.74;101644.03;7284993;19;153192;-50
2021/10/27 04:46:08;;;;;;;;;;;;;;;20.09;70.19;101648.81;7287240;19;152022;-50
2021/10/27 04:48:35;;;;;;;;;;;;;;;20.11;70.03;101656.94;7287295;19;152678;-50
2021/10/27 04:51:02;;;;;;;;;;;;;;;20.13;69.48;101646.25;7285051;19;153141;-50
2021/10/27 04:53:29;;;;;;;;;;;;;;;20.13;69.52;101646.25;7286476;19;151665;-49
2021/10/27 04:55:55;;;;;;;;;;;;;;;20.11;69.79;101646.56;7287351;19;153308;-49
2021/10/27 04:58:22;;;;;;;;;;;;;;;20.13;69.91;101646.25;7290380;19;152822;-50
2021/10/27 05:00:49;;;;;;;;;;;;;;;20.12;69.50;101647.41;7284408;19;151933;-49
2021/10/27 05:03:16;;;;;;;;;;;;;;;20.08;69.59;101637.91;7285261;19;153406;-49
2021/10/27 05:05:53;;;;;;;;;;;;;;;20.07;70.27;101636.22;7287187;19;151871;-49
2021/10/27 05:08:22;;;;;;;;;;;;;;;20.09;69.90;101642.34;7286382;19;153573;-50
2021/10/27 05:10:50;;;;;;;;;;;;;;;20.07;70.31;101644.63;7283683;19;153174;-50
2021/10/27 05:13:19;;;;;;;;;;;;;;;20.06;70.18;101638.19;7286644;19;151874;-50
2021/10/27 05:15:46;;;;;;;;;;;;;;;20.11;69.79;101645.72;7286721;19;152639;-49
2021/10/27 05:18:14;;;;;;;;;;;;;;;20.09;69.47;101637.59;7284534;19;153326;-49
2021/10/27 05:20:41;;;;;;;;;;;;;;;20.10;70.00;101638.44;7292190;19;152317;-49
2021/10/27 05:23:08;;;;;;;;;;;;;;;20.07;70.30;101639.03;7285444;19;153302;-49
2021/10/27 05:25:35;;;;;;;;;;;;;;;20.06;70.19;101634.53;7285506;19;151786;-49
2021/10/27 05:28:02;;;;;;;;;;;;;;;20.07;70.09;101634.25;7285640;19;152498;-49
2021/10/27 05:30:28;;;;;;;;;;;;;;;20.04;70.04;101636.78;7284377;19;154182;-49
2021/10/27 05:32:57;;;;;;;;;;;;;;;20.04;70.17;101632.00;7285370;19;151826;-49
2021/10/27 05:35:25;;;;;;;;;;;;;;;20.06;70.04;101631.72;7282593;19;153158;-49
2021/10/27 05:37:52;;;;;;;;;;;;;;;20.03;70.11;101644.38;7283949;19;153231;-49
2021/10/27 05:40:19;;;;;;;;;;;;;;;20.03;69.86;101635.13;7293262;19;151740;-49
2021/10/27 05:42:46;;;;;;;;;;;;;;;20.04;69.72;101639.56;7284391;19;152646;-49
2021/10/27 05:45:14;;;;;;;;;;;;;;;20.03;69.96;101637.94;7284538;19;151993;-49
2021/10/27 05:47:46;;;;;;;;;;;;;;;20.02;69.97;101631.47;7285941;19;152938;-50
2021/10/27 05:55:46;;;;;;;;;;;;;;;20.01;69.85;101621.38;7280347;19;152898;-49
2021/10/27 05:58:13;;;;;;;;;;;;;;;20.01;69.72;101621.38;7279944;19;153549;-49
2021/10/27 06:00:41;;;;;;;;;;;;;;;20.00;69.93;101619.69;7280628;19;151630;-49
2021/10/27 06:03:08;;;;;;;;;;;;;;;20.00;70.03;101619.69;7291757;19;152551;-49
2021/10/27 06:05:36;;;;;;;;;;;;;;;20.11;70.19;101617.69;7285734;19;151482;-49
2021/10/27 06:08:03;;;;;;;;;;;;;;;20.15;69.84;101619.63;7285238;19;153220;-49
2021/10/27 06:10:30;;;;;;;;;;;;;;;20.19;70.24;101617.06;7282837;19;154156;-49
2021/10/27 06:13:07;;;;;;;;;;;;;;;20.21;71.10;101618.47;7285077;19;151932;-49
2021/10/27 06:15:34;;;;;;;;;;;;;;;20.25;71.02;101622.38;7280208;19;153011;-49
2021/10/27 06:18:01;;;;;;;;;;;;;;;20.31;71.09;101620.38;7283527;19;153424;-49
2021/10/27 06:20:29;;;;;;;;;;;;;;;20.37;71.41;101627.63;7284091;19;152086;-49
2021/10/27 06:22:56;;;;;;;;;;;;;;;20.44;71.64;101611.31;7283802;19;152596;-49
2021/10/27 06:25:24;;;;;;;;;;;;;;;20.49;71.57;101614.06;7291006;19;153995;-49
2021/10/27 06:27:59;;;;;;;;;;;;;;;20.59;70.76;101619.63;7283872;19;152773;-49
2021/10/27 06:30:40;;;;;;;;;;;;;;;20.63;70.38;101619.88;7284006;19;153961;-49
2021/10/27 06:35:45;;;;;;;;;;;;;;;20.76;70.77;101617.22;7283076;19;152705;-49
2021/10/27 06:48:50;;;;;;;;;;;;;;;21.00;70.23;101616.47;7297825;19;151807;-49
2021/10/27 06:51:18;;;;;;;;;;;;;;;21.03;69.22;101619.50;7289475;19;154337;-50
2021/10/27 06:53:46;;;;;;;;;;;;;;;21.06;69.45;101616.13;7290102;19;151574;-50
2021/10/27 06:56:20;;;;;;;;;;;;;;;21.11;68.55;101620.84;7288073;19;152609;-49
2021/10/27 06:59:11;;;;;;;;;;;;;;;21.13;68.08;101630.69;7274765;19;153472;-50
2021/10/27 07:17:21;;;;;;;;;;;;;;;21.27;66.70;101644.88;7289331;19;153696;-49
2021/10/27 07:19:48;;;;;;;;;;;;;;;21.28;66.47;101647.41;7287199;19;152660;-49
2021/10/27 07:22:14;;;;;;;;;;;;;;;21.28;66.13;101646.56;7287368;19;152318;-49
2021/10/27 07:24:43;;;;;;;;;;;;;;;21.29;66.15;101651.06;7289781;19;152863;-48
2021/10/27 07:27:11;;;;;;;;;;;;;;;21.30;66.18;101652.75;7287310;19;153223;-49
2021/10/27 07:29:41;;;;;;;;;;;;;;;21.30;65.57;101650.75;7288391;19;152397;-49
2021/10/27 07:32:10;;;;;;;;;;;;;;;21.32;65.62;101658.88;7287693;19;152637;-49
2021/10/27 07:34:44;;;;;;;;;;;;;;;21.33;65.83;101659.72;7293666;19;151832;-50
2021/10/27 07:42:42;;;;;;;;;;;;;;;21.33;65.31;101669.00;7287787;19;152414;-49
2021/10/27 07:45:09;;;;;;;;;;;;;;;21.33;65.08;101673.78;7288979;19;153132;-49
2021/10/27 07:47:36;;;;;;;;;;;;;;;21.33;65.48;101674.63;7283987;19;153145;-49
2021/10/27 07:50:03;;;;;;;;;;;;;;;21.33;65.45;101677.44;7287665;19;152120;-48
2021/10/27 07:52:30;;;;;;;;;;;;;;;21.32;65.39;101686.16;7288721;19;153186;-50
2021/10/27 07:54:57;;;;;;;;;;;;;;;21.29;65.25;101684.78;7293690;19;153873;-49
2021/10/27 07:57:24;;;;;;;;;;;;;;;21.31;65.28;101699.38;7287027;19;152746;-49
2021/10/27 07:59:53;;;;;;;;;;;;;;;21.29;65.34;101693.22;7285846;19;153588;-50
2021/10/27 08:02:26;;;;;;;;;;;;;;;21.30;65.00;101689.28;7285458;19;151837;-50
2021/10/27 08:04:53;;;;;;;;;;;;;;;21.28;64.91;101694.34;7286005;19;153537;-49
2021/10/27 08:07:20;;;;;;;;;;;;;;;21.28;64.75;101699.97;7286608;19;154158;-49
2021/10/27 08:09:46;;;;;;;;;;;;;;;21.30;64.92;101700.53;7286923;19;152461;-49
2021/10/27 08:12:14;;;;;;;;;;;;;;;21.27;64.91;101695.47;7286348;19;152910;-49
2021/10/27 08:14:41;;;;;;;;;;;;;;;21.27;64.60;101704.75;7283876;19;153438;-49
2021/10/27 08:17:27;;;;;;;;;;;;;;;21.27;64.60;101690.69;7293919;19;152618;-48
2021/10/27 08:19:59;;;;;;;;;;;;;;;21.29;65.01;101707.28;7285652;19;153011;-49
2021/10/27 08:22:26;;;;;;;;;;;;;;;21.27;64.81;101698.28;7286799;19;151650;-49
2021/10/27 08:24:54;;;;;;;;;;;;;;;21.27;64.82;101703.91;7286026;19;152790;-49
2021/10/27 08:27:46;;;;;;;;;;;;;;;21.28;65.04;101705.59;7286630;19;154019;-49
2021/10/27 08:37:26;;;;;;;;;;;;;;;21.25;64.27;101711.81;7281406;19;152905;-49
2021/10/27 08:43:41;;;;;;;;;;;;;;;21.20;63.38;101709.88;7277146;19;153254;-49
2021/10/27 08:47:25;;;;;;;;;;;;;;;21.19;63.33;101705.38;7284674;19;152434;-49
2021/10/27 08:53:23;;;;;;;;;;;;;;;21.16;63.22;101703.19;7279924;19;153648;-50
2021/10/27 08:56:03;;;;;;;;;;;;;;;21.12;62.96;101709.66;7284087;19;152184;-49
2021/10/27 08:58:55;;;;;;;;;;;;;;;21.09;62.85;101701.78;7284319;19;152910;-49
2021/10/27 09:01:34;;;;;;;;;;;;;;;21.11;62.91;101702.34;7281175;19;153932;-49
2021/10/27 09:09:25;;;;;;;;;;;;;;;21.05;62.76;101714.75;7290758;19;153249;-49
2021/10/27 09:33:44;;;;;;;;;;;;;;;20.90;63.15;101714.84;7282069;19;153186;-50
2021/10/27 09:35:13;;;;;;;;;;;;;;;20.79;63.02;101705.69;7279425;19;152698;-50
2021/10/27 09:37:59;;;;;;;;;;;;;;;20.78;63.12;101718.88;7284147;19;152152;-49
2021/10/27 09:55:57;;;;;;;;;;;;;;;20.45;61.57;101716.00;7282924;19;153240;-49
2021/10/27 10:05:59;;;;;;;;;;;;;;;20.62;63.81;101694.03;7278991;19;151868;-50
2021/10/27 10:08:26;;;;;;;;;;;;;;;20.65;64.24;101699.88;7285746;19;152181;-49
2021/10/27 10:10:53;;;;;;;;;;;;;;;20.68;66.25;101696.47;7278512;19;153822;-49
2021/10/27 10:13:21;;;;;;;;;;;;;;;20.71;65.93;101704.34;7285104;19;151826;-50
2021/10/27 10:15:50;;;;;;;;;;;;;;;20.70;65.57;101701.81;7259815;19;153319;-49
2021/10/27 10:18:20;;;;;;;;;;;;;;;20.66;65.43;101701.56;7283609;19;151547;-49
2021/10/27 10:20:49;;;;;;;;;;;;;;;20.63;65.60;101693.72;7283698;19;154935;-49
2021/10/27 10:23:17;;;;;;;;;;;;;;;20.60;65.27;101693.47;7282389;19;154100;-49
2021/10/27 10:25:48;;;;;;;;;;;;;;;20.57;65.53;101686.47;7283341;19;152849;-50
2021/10/27 10:28:17;;;;;;;;;;;;;;;20.57;65.28;101694.91;7283606;19;153223;-49
2021/10/27 10:30:51;;;;;;;;;;;;;;;20.56;65.49;101681.97;7279858;19;153849;-49
2021/10/27 10:33:18;;;;;;;;;;;;;;;20.55;65.13;101679.44;7283778;19;152622;-50
2021/10/27 10:38:18;;;;;;;;;;;;;;;20.51;64.81;101679.19;7290610;19;153456;-49
2021/10/27 10:43:49;;;;;;;;;;;;;;;20.53;64.38;101681.72;7281314;19;154623;-50
2021/10/27 11:11:38;;;;;;;;;;;;;;;20.71;65.62;101681.88;7281740;19;153547;-49
2021/10/27 11:25:00;;;;;;;;;;;;;;;20.47;64.76;101668.84;7291271;19;152665;-49
2021/10/27 11:40:22;;;;;;;;;;;;;;;20.39;64.08;101664.69;7287480;19;152236;-49
2021/10/27 11:42:53;;;;;;;;;;;;;;;20.41;63.70;101656.81;7287757;19;154164;-49
2021/10/27 11:47:57;;;;;;;;;;;;;;;20.36;63.54;101659.63;7282913;19;153481;-49
2021/10/27 11:50:30;;;;;;;;;;;;;;;20.36;63.43;101659.63;7285074;19;155383;-50
2021/10/27 11:52:57;;;;;;;;;;;;;;;20.35;63.67;101655.97;7286764;19;153364;-48
2021/10/27 11:55:28;;;;;;;;;;;;;;;20.33;63.35;101668.66;7285168;19;151886;-49
2021/10/27 11:57:55;;;;;;;;;;;;;;;20.29;63.31;101659.94;7286915;19;153876;-48
2021/10/27 12:00:30;;;;;;;;;;;;;;;20.31;63.39;101663.31;7281722;19;153586;-49
2021/10/27 12:03:03;;;;;;;;;;;;;;;20.31;63.26;101652.09;7287845;19;151778;-49
2021/10/27 12:10:46;;;;;;;;;;;;;;;20.28;62.90;101652.66;7287529;19;152680;-49
2021/10/27 12:13:28;;;;;;;;;;;;;;;20.28;63.43;101658.25;7286227;19;153413;-49
2021/10/27 12:16:17;;;;;;;;;;;;;;;20.26;63.50;101659.69;7285285;19;151985;-48
2021/10/27 12:18:52;;;;;;;;;;;;;;;20.26;63.16;101646.47;7286848;19;153480;-50
2021/10/27 12:21:21;;;;;;;;;;;;;;;20.24;63.18;101645.09;7282787;19;153523;-49
2021/10/27 12:23:49;;;;;;;;;;;;;;;20.22;63.64;101641.72;7287505;19;151986;-49
2021/10/27 12:26:17;;;;;;;;;;;;;;;20.22;62.91;101647.34;7287026;19;153408;-49
2021/10/27 12:28:44;;;;;;;;;;;;;;;20.23;62.96;101651.81;7283279;19;154088;-49
2021/10/27 12:31:14;;;;;;;;;;;;;;;20.23;63.05;101638.63;7290768;19;153415;-49
2021/10/27 12:33:42;;;;;;;;;;;;;;;20.22;63.43;101630.50;7284172;19;153693;-49
2021/10/27 12:36:11;;;;;;;;;;;;;;;20.24;63.05;101628.25;7286908;19;151806;-49
2021/10/27 12:38:40;;;;;;;;;;;;;;;20.25;63.08;101627.97;7282748;19;153008;-49
2021/10/27 12:41:11;;;;;;;;;;;;;;;20.30;63.31;101624.34;7286511;19;154468;-49
2021/10/27 12:43:42;;;;;;;;;;;;;;;20.34;63.63;101614.19;7285352;19;152292;-49
2021/10/27 12:46:14;;;;;;;;;;;;;;;20.33;64.01;101615.31;7286194;19;152867;-49
2021/10/27 12:48:41;;;;;;;;;;;;;;;20.35;64.26;101607.47;7280853;19;153631;-49
2021/10/27 12:51:13;;;;;;;;;;;;;;;20.40;63.78;101601.78;7286957;19;151949;-49
2021/10/27 12:53:44;;;;;;;;;;;;;;;20.39;64.05;101592.56;7291675;19;152751;-49
2021/10/27 12:56:16;;;;;;;;;;;;;;;20.41;64.29;101587.47;7284072;19;152355;-49
2021/10/27 12:58:50;;;;;;;;;;;;;;;20.38;63.95;101590.03;7287335;19;152821;-50
2021/10/27 13:01:20;;;;;;;;;;;;;;;20.38;64.08;101593.69;7280973;19;154235;-49
2021/10/27 13:04:01;;;;;;;;;;;;;;;20.36;63.97;101583.84;7286235;19;152273;-50
2021/10/27 13:11:34;;;;;;;;;;;;;;;20.55;64.19;101587.66;7286431;19;151911;-50
2021/10/27 13:21:37;;;;;;;;;;;;;;;20.18;58.99;101590.13;7283468;19;153259;-49
2021/10/27 13:31:35;;;;;;;;;;;;;;;20.15;57.02;101607.56;7285539;19;152343;-50
2021/10/27 13:34:02;;;;;;;;;;;;;;;20.10;57.83;101590.75;7283051;19;153376;-50
2021/10/27 13:36:29;;;;;;;;;;;;;;;20.09;56.88;101575.88;7284366;19;153423;-49
2021/10/27 13:39:00;;;;;;;;;;;;;;;20.06;56.32;101578.44;7293274;19;151878;-49
2021/10/27 13:41:27;;;;;;;;;;;;;;;19.90;56.13;101575.69;7284293;19;154445;-49
2021/10/27 13:44:00;;;;;;;;;;;;;;;19.91;56.69;101574.59;7284696;19;153919;-49
2021/10/27 13:59:20;;;;;;;;;;;;;;;20.04;59.89;101567.47;7282918;19;152679;-49
2021/10/27 14:09:26;;;;;;;;;;;;;;;20.11;61.20;101562.41;7274444;19;153452;-50
2021/10/27 14:22:30;;;;;;;;;;;;;;;20.19;60.32;101552.53;7288120;19;153299;-50
2021/10/27 15:20:15;;;;;;;;;;;;;;;20.08;60.82;101520.88;7288551;19;152109;-49
2021/10/27 15:30:23;;;;;;;;;;;;;;;20.09;60.94;101528.19;7295977;19;152008;-49
2021/10/27 15:50:42;;;;;;;;;;;;;;;20.13;60.65;101514.41;7288971;19;153291;-50
2021/10/27 15:53:09;;;;;;;;;;;;;;;20.11;60.93;101522.28;7294536;19;153802;-50
2021/10/27 15:55:36;;;;;;;;;;;;;;;20.04;60.70;101516.16;7285783;19;153689;-50
2021/10/27 15:58:04;;;;;;;;;;;;;;;19.98;60.73;101516.22;7284605;19;154207;-51
2021/10/27 16:00:31;;;;;;;;;;;;;;;19.98;61.00;101521.00;7287560;19;151962;-50
2021/10/27 16:02:58;;;;;;;;;;;;;;;19.94;61.04;101511.47;7286447;19;152597;-50
2021/10/27 16:05:26;;;;;;;;;;;;;;;19.92;60.95;101508.97;7286100;19;154072;-50
2021/10/27 16:07:54;;;;;;;;;;;;;;;19.90;61.17;101519.63;7287808;19;151989;-50
2021/10/27 16:10:22;;;;;;;;;;;;;;;19.89;60.99;101517.97;7286959;19;153389;-50
2021/10/27 16:12:51;;;;;;;;;;;;;;;19.88;61.15;101510.66;7287839;19;153334;-50
2021/10/27 16:15:25;;;;;;;;;;;;;;;19.88;60.99;101518.25;7296271;19;151820;-50
2021/10/27 16:17:52;;;;;;;;;;;;;;;19.88;60.60;101518.25;7284932;19;154131;-50
2021/10/27 16:20:20;;;;;;;;;;;;;;;19.86;60.69;101512.06;7287232;19;151741;-49
2021/10/27 16:22:47;;;;;;;;;;;;;;;19.84;60.74;101505.94;7288581;19;152833;-50
2021/10/27 16:25:15;;;;;;;;;;;;;;;19.84;61.02;101514.34;7288115;19;154394;-50
2021/10/27 16:27:46;;;;;;;;;;;;;;;19.80;60.68;101500.06;7287095;19;152171;-50
2021/10/27 16:30:13;;;;;;;;;;;;;;;19.82;60.68;101510.97;7287577;19;153493;-50
2021/10/27 16:32:41;;;;;;;;;;;;;;;19.79;60.72;101504.00;7287963;19;153732;-49
2021/10/27 16:35:08;;;;;;;;;;;;;;;19.79;60.98;101501.19;7294937;19;151901;-50
2021/10/27 16:37:35;;;;;;;;;;;;;;;19.80;61.13;101502.88;7285647;19;153443;-50
2021/10/27 16:40:05;;;;;;;;;;;;;;;19.75;60.63;101496.44;7288959;19;152067;-50
2021/10/27 16:42:33;;;;;;;;;;;;;;;19.76;61.02;101487.72;7286892;19;152910;-50
2021/10/27 16:45:00;;;;;;;;;;;;;;;19.76;60.80;101492.53;7287532;19;153423;-50
2021/10/27 16:47:27;;;;;;;;;;;;;;;19.74;61.12;101501.22;7288485;19;152048;-50
2021/10/27 16:49:54;;;;;;;;;;;;;;;19.74;60.60;101495.63;7288716;19;152678;-49
2021/10/27 16:52:21;;;;;;;;;;;;;;;19.73;60.77;101493.09;7286965;19;153456;-49
2021/10/27 16:54:49;;;;;;;;;;;;;;;19.72;60.85;101503.47;7288062;19;151930;-50
2021/10/27 16:57:16;;;;;;;;;;;;;;;19.71;61.00;101503.78;7294230;19;152045;-50
2021/10/27 16:59:43;;;;;;;;;;;;;;;19.72;60.81;101489.44;7287497;19;152091;-50
2021/10/27 17:02:10;;;;;;;;;;;;;;;19.71;60.94;101495.38;7286316;19;152856;-50
2021/10/27 17:04:38;;;;;;;;;;;;;;;19.72;61.16;101495.06;7287221;19;153811;-50
2021/10/27 17:07:05;;;;;;;;;;;;;;;19.72;61.17;101488.59;7287586;19;151987;-49
2021/10/27 17:09:32;;;;;;;;;;;;;;;19.71;61.01;101493.41;7286759;19;153138;-50
2021/10/27 17:11:59;;;;;;;;;;;;;;;19.72;61.03;101494.22;7286539;19;154359;-51
2021/10/27 17:14:32;;;;;;;;;;;;;;;19.73;60.98;101493.94;7287599;19;151764;-51
2021/10/27 17:17:00;;;;;;;;;;;;;;;19.71;61.25;101501.81;7285452;19;152631;-50
2021/10/27 17:19:27;;;;;;;;;;;;;;;19.70;60.95;101493.69;7291354;19;154250;-50
2021/10/27 17:21:55;;;;;;;;;;;;;;;19.69;61.17;101494.78;7286204;19;152827;-49
2021/10/27 17:24:22;;;;;;;;;;;;;;;19.67;61.44;101488.66;7284100;19;154324;-50
2021/10/27 17:26:49;;;;;;;;;;;;;;;19.67;61.15;101503.50;7286329;19;151843;-50
2021/10/27 17:29:16;;;;;;;;;;;;;;;19.66;61.58;101496.22;7287498;19;153330;-50
2021/10/27 17:31:43;;;;;;;;;;;;;;;19.67;61.11;101491.47;7286858;19;153483;-50
2021/10/27 17:34:10;;;;;;;;;;;;;;;19.67;61.10;101483.88;7287465;19;151671;-50